createdAt,value
2019-05-06T00:01:15.017Z,99.90
2019-05-06T00:03:44.421Z,99.90
2019-05-06T00:06:14.523Z,99.90
2019-05-06T00:08:44.178Z,99.90
2019-05-06T00:11:14.172Z,99.90
2019-05-06T00:13:44.515Z,99.90
2019-05-06T00:16:14.477Z,99.90
2019-05-06T00:18:44.927Z,99.90
2019-05-06T00:21:14.898Z,99.90
2019-05-06T00:23:50.307Z,99.90
2019-05-06T00:26:44.893Z,99.90
2019-05-06T00:29:16.993Z,99.90
2019-05-06T00:31:46.365Z,99.90
2019-05-06T00:34:15.710Z,99.90
2019-05-06T00:36:44.917Z,99.90
2019-05-06T00:39:39.483Z,99.90
2019-05-06T00:42:24.184Z,99.90
2019-05-06T00:44:53.756Z,99.90
2019-05-06T00:47:24.564Z,99.90
2019-05-06T00:49:54.583Z,99.90
2019-05-06T00:52:26.005Z,99.90
2019-05-06T00:54:55.423Z,99.90
2019-05-06T00:57:43.793Z,99.90
2019-05-06T01:00:24.730Z,99.90
2019-05-06T01:02:54.422Z,99.90
2019-05-06T01:05:24.424Z,99.90
2019-05-06T01:07:54.940Z,99.90
2019-05-06T01:10:25.038Z,99.90
2019-05-06T01:13:00.033Z,99.90
2019-05-06T01:15:30.421Z,99.90
2019-05-06T01:17:59.712Z,99.90
2019-05-06T01:20:30.118Z,99.90
2019-05-06T01:22:59.478Z,99.90
2019-05-06T01:25:28.640Z,99.90
2019-05-06T01:27:57.978Z,99.90
2019-05-06T01:30:27.695Z,99.90
2019-05-06T01:32:56.896Z,99.90
2019-05-06T01:35:26.165Z,99.90
2019-05-06T01:38:14.671Z,99.90
2019-05-06T01:41:08.726Z,99.90
2019-05-06T01:43:38.169Z,99.90
2019-05-06T01:46:07.464Z,99.90
2019-05-06T01:48:48.973Z,99.90
2019-05-06T01:51:19.374Z,99.90
2019-05-06T01:53:48.894Z,99.90
2019-05-06T01:56:18.304Z,99.90
2019-05-06T01:58:47.820Z,99.90
2019-05-06T02:01:17.413Z,99.90
2019-05-06T02:03:46.723Z,99.90
2019-05-06T02:06:16.060Z,99.90
2019-05-06T02:08:45.509Z,99.90
2019-05-06T02:11:15.089Z,99.90
2019-05-06T02:13:44.761Z,99.90
2019-05-06T02:16:14.742Z,99.90
2019-05-06T02:18:45.089Z,99.90
2019-05-06T02:21:33.715Z,99.90
2019-05-06T02:24:04.922Z,99.90
2019-05-06T02:26:34.421Z,99.90
2019-05-06T02:29:05.419Z,99.90
2019-05-06T02:32:17.053Z,99.90
2019-05-06T02:34:45.551Z,99.90
2019-05-06T02:37:17.350Z,99.90
2019-05-06T02:39:46.686Z,99.90
2019-05-06T02:42:15.945Z,99.90
2019-05-06T02:44:45.400Z,99.90
2019-05-06T02:47:43.085Z,99.90
2019-05-06T02:50:15.250Z,99.90
2019-05-06T02:52:44.538Z,99.90
2019-05-06T02:55:14.007Z,99.90
2019-05-06T02:57:44.082Z,99.90
2019-05-06T03:00:15.898Z,99.90
2019-05-06T03:02:48.224Z,99.90
2019-05-06T03:05:16.240Z,99.90
2019-05-06T03:07:45.621Z,99.90
2019-05-06T03:10:16.087Z,99.90
2019-05-06T03:12:45.444Z,99.90
2019-05-06T03:15:16.775Z,99.90
2019-05-06T03:17:46.446Z,99.90
2019-05-06T03:20:26.855Z,99.90
2019-05-06T03:23:04.140Z,99.90
2019-05-06T03:25:35.348Z,99.90
2019-05-06T03:28:04.833Z,99.90
2019-05-06T03:30:36.129Z,99.90
2019-05-06T03:33:44.809Z,99.90
2019-05-06T03:35:50.498Z,99.90
2019-05-06T03:38:07.183Z,99.90
2019-05-06T03:40:39.334Z,99.90
2019-05-06T03:43:07.489Z,99.90
2019-05-06T03:45:55.906Z,99.90
2019-05-06T03:48:28.636Z,99.90
2019-05-06T03:50:57.842Z,99.90
2019-05-06T03:53:33.294Z,99.90
2019-05-06T03:56:03.342Z,99.90
2019-05-06T03:58:36.092Z,99.90
2019-05-06T04:01:05.677Z,99.90
2019-05-06T04:03:47.239Z,99.90
2019-05-06T04:06:06.147Z,99.90
2019-05-06T04:08:35.656Z,99.90
2019-05-06T04:11:05.139Z,99.90
2019-05-06T04:13:35.066Z,99.90
2019-05-06T04:16:19.436Z,99.90
2019-05-06T04:18:55.043Z,99.90
2019-05-06T04:21:32.775Z,99.90
2019-05-06T04:24:17.527Z,99.90
2019-05-06T04:26:53.440Z,99.90
2019-05-06T04:29:24.051Z,99.90
2019-05-06T04:31:54.261Z,99.90
2019-05-06T04:34:23.751Z,99.90
2019-05-06T04:36:53.516Z,99.90
2019-05-06T04:39:23.636Z,99.90
2019-05-06T04:41:53.825Z,99.90
2019-05-06T04:44:24.032Z,99.90
2019-05-06T04:46:54.413Z,99.90
2019-05-06T04:49:26.981Z,99.90
2019-05-06T04:51:57.019Z,99.90
2019-05-06T04:54:26.925Z,99.90
2019-05-06T04:56:56.417Z,99.90
2019-05-06T04:59:25.833Z,99.90
2019-05-06T05:01:55.275Z,99.90
2019-05-06T05:04:32.155Z,99.90
2019-05-06T05:06:55.917Z,99.90
2019-05-06T05:09:25.228Z,99.90
2019-05-06T05:11:58.692Z,99.90
2019-05-06T05:14:45.662Z,99.90
2019-05-06T05:17:36.968Z,99.90
2019-05-06T05:20:07.556Z,99.90
2019-05-06T05:22:37.148Z,99.90
2019-05-06T05:25:06.965Z,99.90
2019-05-06T05:27:36.362Z,99.90
2019-05-06T05:30:05.819Z,99.90
2019-05-06T05:32:35.401Z,99.90
2019-05-06T05:35:04.961Z,99.90
2019-05-06T05:37:35.329Z,99.90
2019-05-06T05:40:05.430Z,99.90
2019-05-06T05:42:43.873Z,99.90
2019-05-06T05:45:13.545Z,99.90
2019-05-06T05:47:43.053Z,99.90
2019-05-06T05:50:32.540Z,99.90
2019-05-06T05:53:03.081Z,99.90
2019-05-06T05:55:32.998Z,99.90
2019-05-06T05:58:03.350Z,99.90
2019-05-06T06:00:34.536Z,99.90
2019-05-06T06:03:06.837Z,99.90
2019-05-06T06:05:34.826Z,99.90
2019-05-06T06:08:04.289Z,99.90
2019-05-06T06:10:52.681Z,99.90
2019-05-06T06:13:22.342Z,99.90
2019-05-06T06:16:06.629Z,99.90
2019-05-06T06:18:43.995Z,99.90
2019-05-06T06:21:32.598Z,99.90
2019-05-06T06:24:06.927Z,99.90
2019-05-06T06:26:36.138Z,99.90
2019-05-06T06:29:05.756Z,99.90
2019-05-06T06:32:00.083Z,99.90
2019-05-06T06:34:44.147Z,99.90
2019-05-06T06:37:33.178Z,99.90
2019-05-06T06:40:02.988Z,99.90
2019-05-06T06:42:33.554Z,99.90
2019-05-06T06:45:03.638Z,99.90
2019-05-06T06:47:33.134Z,99.90
2019-05-06T06:50:03.013Z,99.90
2019-05-06T06:52:32.688Z,99.90
2019-05-06T06:55:02.617Z,99.90
2019-05-06T06:57:39.603Z,99.90
2019-05-06T07:00:29.086Z,99.90
2019-05-06T07:03:05.643Z,99.90
2019-05-06T07:05:42.531Z,99.90
2019-05-06T07:08:12.691Z,99.90
2019-05-06T07:10:45.233Z,99.90
2019-05-06T07:13:16.794Z,99.90
2019-05-06T07:15:46.047Z,99.90
2019-05-06T07:18:15.377Z,99.90
2019-05-06T07:21:05.515Z,99.90
2019-05-06T07:23:35.929Z,99.90
2019-05-06T07:26:05.430Z,99.90
2019-05-06T07:28:34.776Z,99.90
2019-05-06T07:31:17.400Z,99.90
2019-05-06T07:33:35.260Z,99.90
2019-05-06T07:36:04.914Z,99.90
2019-05-06T07:38:34.259Z,99.90
2019-05-06T07:41:15.176Z,99.90
2019-05-06T07:44:13.095Z,99.90
2019-05-06T07:46:57.289Z,99.90
2019-05-06T07:49:26.875Z,99.90
2019-05-06T07:51:56.195Z,99.90
2019-05-06T07:54:25.618Z,99.90
2019-05-06T07:56:54.943Z,99.90
2019-05-06T07:59:27.354Z,99.90
2019-05-06T08:01:56.848Z,99.90
2019-05-06T08:04:26.166Z,99.90
2019-05-06T08:06:55.554Z,99.90
2019-05-06T08:09:24.975Z,99.90
2019-05-06T08:11:54.280Z,99.90
2019-05-06T08:14:25.296Z,99.90
2019-05-06T08:17:02.453Z,99.90
2019-05-06T08:19:33.556Z,99.90
2019-05-06T08:22:05.626Z,99.90
2019-05-06T08:24:35.244Z,99.90
2019-05-06T08:27:04.507Z,99.90
2019-05-06T08:29:33.867Z,99.90
2019-05-06T08:32:03.276Z,99.90
2019-05-06T08:34:34.281Z,99.90
2019-05-06T08:37:09.018Z,99.90
2019-05-06T08:39:38.444Z,99.90
2019-05-06T08:42:07.889Z,99.90
2019-05-06T08:44:37.204Z,99.90
2019-05-06T08:47:06.613Z,99.90
2019-05-06T08:49:54.010Z,99.90
2019-05-06T08:52:27.292Z,99.90
2019-05-06T08:54:58.117Z,99.90
2019-05-06T08:57:27.455Z,99.90
2019-05-06T08:59:56.802Z,99.90
2019-05-06T09:02:26.113Z,99.90
2019-05-06T09:04:55.358Z,97.80
2019-05-06T09:07:24.667Z,96.50
2019-05-06T09:09:54.009Z,95.90
2019-05-06T09:12:23.339Z,97.30
2019-05-06T09:14:53.251Z,99.90
2019-05-06T09:17:22.835Z,99.90
2019-05-06T09:19:53.423Z,99.90
2019-05-06T09:22:23.543Z,99.90
2019-05-06T09:24:53.243Z,99.90
2019-05-06T09:27:42.169Z,99.90
2019-05-06T09:30:22.930Z,99.90
2019-05-06T09:32:52.466Z,99.90
2019-05-06T09:35:22.266Z,99.90
2019-05-06T09:37:53.474Z,99.90
2019-05-06T09:40:22.920Z,90.50
2019-05-06T09:42:52.277Z,90.50
2019-05-06T09:45:22.771Z,93.00
2019-05-06T09:48:12.822Z,97.00
2019-05-06T09:50:46.121Z,99.90
2019-05-06T09:53:19.463Z,99.90
2019-05-06T09:56:06.684Z,98.20
2019-05-06T09:58:39.410Z,98.40
2019-05-06T10:01:09.061Z,98.60
2019-05-06T10:03:38.437Z,99.90
2019-05-06T10:06:07.818Z,99.40
2019-05-06T10:08:37.186Z,97.80
2019-05-06T10:11:06.519Z,97.80
2019-05-06T10:13:35.991Z,99.30
2019-05-06T10:16:05.409Z,99.90
2019-05-06T10:18:34.795Z,99.90
2019-05-06T10:21:04.348Z,99.90
2019-05-06T10:23:33.647Z,97.60
2019-05-06T10:26:04.539Z,96.80
2019-05-06T10:28:41.989Z,97.00
2019-05-06T10:31:13.411Z,95.10
2019-05-06T10:34:02.876Z,94.40
2019-05-06T10:36:42.725Z,97.70
2019-05-06T10:39:12.771Z,96.10
2019-05-06T10:41:45.316Z,96.20
2019-05-06T10:44:33.379Z,97.40
2019-05-06T10:47:02.991Z,96.10
2019-05-06T10:49:33.643Z,95.50
2019-05-06T10:52:21.886Z,95.30
2019-05-06T10:54:51.369Z,96.70
2019-05-06T10:57:28.662Z,97.50
2019-05-06T10:59:58.031Z,97.70
2019-05-06T11:02:58.320Z,99.10
2019-05-06T11:05:27.861Z,99.30
2019-05-06T11:07:57.236Z,98.60
2019-05-06T11:10:32.115Z,98.10
2019-05-06T11:12:57.539Z,96.40
2019-05-06T11:15:26.876Z,99.90
2019-05-06T11:17:56.267Z,96.50
2019-05-06T11:20:25.742Z,97.90
2019-05-06T11:22:55.094Z,96.50
2019-05-06T11:25:24.484Z,98.60
2019-05-06T11:27:53.789Z,96.70
2019-05-06T11:30:42.547Z,95.70
2019-05-06T11:33:30.247Z,95.90
2019-05-06T11:36:02.470Z,93.70
2019-05-06T11:38:32.251Z,90.40
2019-05-06T11:41:01.838Z,85.20
2019-05-06T11:43:32.476Z,88.50
2019-05-06T11:46:02.040Z,87.50
2019-05-06T11:48:32.804Z,82.80
2019-05-06T11:51:03.935Z,90.50
2019-05-06T11:53:33.337Z,90.20
2019-05-06T11:56:02.701Z,92.00
2019-05-06T11:58:52.930Z,92.20
2019-05-06T12:01:28.259Z,94.50
2019-05-06T12:03:57.591Z,93.50
2019-05-06T12:06:26.917Z,94.30
2019-05-06T12:08:56.293Z,92.60
2019-05-06T12:11:25.651Z,93.10
2019-05-06T12:13:55.019Z,90.00
2019-05-06T12:16:26.031Z,89.60
2019-05-06T12:18:55.730Z,89.90
2019-05-06T12:21:25.075Z,89.00
2019-05-06T12:23:54.547Z,90.60
2019-05-06T12:26:23.873Z,90.80
2019-05-06T12:28:53.433Z,91.50
2019-05-06T12:31:23.505Z,90.90
2019-05-06T12:33:53.506Z,91.20
2019-05-06T12:36:26.047Z,92.10
2019-05-06T12:39:16.261Z,90.70
2019-05-06T12:42:12.930Z,91.40
2019-05-06T12:44:47.646Z,91.50
2019-05-06T12:47:32.873Z,91.10
2019-05-06T12:50:02.907Z,91.40
2019-05-06T12:52:32.454Z,90.50
2019-05-06T12:55:17.360Z,91.50
2019-05-06T12:57:34.519Z,87.90
2019-05-06T13:00:04.436Z,90.00
2019-05-06T13:02:33.686Z,90.30
2019-05-06T13:05:04.042Z,86.50
2019-05-06T13:07:42.011Z,87.80
2019-05-06T13:10:13.097Z,84.90
2019-05-06T13:12:45.947Z,89.90
2019-05-06T13:15:15.369Z,83.70
2019-05-06T13:17:44.642Z,80.30
2019-05-06T13:20:14.879Z,80.20
2019-05-06T13:23:08.657Z,83.50
2019-05-06T13:25:34.436Z,82.70
2019-05-06T13:28:05.580Z,82.70
2019-05-06T13:30:34.946Z,85.80
2019-05-06T13:33:13.324Z,80.80
2019-05-06T13:35:42.053Z,78.90
2019-05-06T13:38:11.654Z,77.30
2019-05-06T13:40:54.036Z,80.60
2019-05-06T13:43:46.317Z,82.10
2019-05-06T13:46:24.847Z,75.50
2019-05-06T13:49:13.299Z,75.90
2019-05-06T13:51:47.115Z,77.20
2019-05-06T13:54:16.670Z,79.10
2019-05-06T13:56:48.910Z,78.30
2019-05-06T13:59:17.413Z,76.20
2019-05-06T14:02:09.120Z,76.70
2019-05-06T14:04:38.744Z,82.10
2019-05-06T14:07:08.133Z,74.80
2019-05-06T14:09:40.287Z,77.00
2019-05-06T14:12:08.623Z,79.70
2019-05-06T14:14:38.053Z,78.90
2019-05-06T14:17:07.581Z,76.70
2019-05-06T14:19:37.010Z,73.30
2019-05-06T14:22:06.435Z,80.90
2019-05-06T14:24:37.395Z,77.70
2019-05-06T14:27:09.770Z,76.00
2019-05-06T14:30:04.799Z,78.40
2019-05-06T14:32:34.348Z,75.70
2019-05-06T14:35:03.837Z,71.60
2019-05-06T14:37:33.216Z,73.90
2019-05-06T14:40:04.224Z,75.60
2019-05-06T14:42:33.622Z,75.30
2019-05-06T14:45:03.018Z,75.60
2019-05-06T14:47:34.960Z,77.50
2019-05-06T14:50:07.751Z,72.40
2019-05-06T14:52:37.140Z,71.70
2019-05-06T14:55:15.278Z,71.50
2019-05-06T14:57:43.733Z,74.80
2019-05-06T15:00:16.571Z,72.90
2019-05-06T15:02:45.886Z,71.40
2019-05-06T15:05:15.437Z,72.80
2019-05-06T15:07:44.842Z,75.70
2019-05-06T15:10:22.691Z,76.20
2019-05-06T15:12:45.432Z,75.80
2019-05-06T15:15:14.916Z,73.80
2019-05-06T15:17:44.298Z,76.00
2019-05-06T15:20:14.027Z,76.50
2019-05-06T15:22:43.458Z,76.70
2019-05-06T15:25:13.098Z,75.80
2019-05-06T15:27:42.679Z,78.00
2019-05-06T15:30:17.545Z,76.10
2019-05-06T15:32:46.968Z,75.50
2019-05-06T15:35:41.897Z,77.40
2019-05-06T15:38:19.089Z,78.80
2019-05-06T15:40:48.530Z,76.50
2019-05-06T15:43:17.867Z,76.30
2019-05-06T15:45:47.313Z,78.20
2019-05-06T15:48:16.777Z,78.10
2019-05-06T15:50:46.203Z,76.30
2019-05-06T15:53:15.621Z,77.90
2019-05-06T15:55:45.065Z,76.80
2019-05-06T15:58:14.475Z,79.50
2019-05-06T16:00:44.003Z,77.50
2019-05-06T16:03:13.504Z,79.60
2019-05-06T16:05:43.680Z,78.90
2019-05-06T16:08:13.236Z,77.50
2019-05-06T16:10:51.749Z,77.30
2019-05-06T16:13:13.659Z,79.10
2019-05-06T16:15:43.549Z,78.40
2019-05-06T16:18:13.108Z,78.90
2019-05-06T16:20:42.553Z,80.20
2019-05-06T16:23:22.903Z,79.20
2019-05-06T16:25:52.411Z,79.10
2019-05-06T16:28:22.398Z,80.30
2019-05-06T16:30:53.427Z,77.80
2019-05-06T16:33:23.178Z,81.70
2019-05-06T16:35:52.620Z,78.90
2019-05-06T16:38:23.047Z,78.30
2019-05-06T16:41:02.105Z,80.60
2019-05-06T16:43:23.667Z,79.00
2019-05-06T16:45:53.369Z,80.00
2019-05-06T16:48:22.952Z,82.20
2019-05-06T16:50:52.413Z,79.40
2019-05-06T16:53:22.984Z,80.30
2019-05-06T16:56:07.173Z,80.70
2019-05-06T16:58:39.099Z,79.00
2019-05-06T17:01:08.617Z,83.50
2019-05-06T17:03:43.864Z,81.30
2019-05-06T17:06:17.037Z,79.80
2019-05-06T17:08:46.477Z,81.50
2019-05-06T17:11:26.972Z,80.80
2019-05-06T17:13:47.034Z,80.90
2019-05-06T17:16:17.067Z,79.80
2019-05-06T17:18:46.543Z,81.80
2019-05-06T17:21:15.943Z,79.90
2019-05-06T17:23:45.425Z,81.30
2019-05-06T17:26:14.791Z,82.50
2019-05-06T17:29:24.990Z,82.50
2019-05-06T17:32:03.033Z,81.80
2019-05-06T17:34:38.019Z,83.20
2019-05-06T17:37:26.535Z,84.70
2019-05-06T17:40:07.009Z,83.40
2019-05-06T17:42:26.939Z,83.90
2019-05-06T17:44:56.412Z,84.20
2019-05-06T17:47:35.480Z,87.10
2019-05-06T17:50:05.927Z,86.10
2019-05-06T17:52:35.358Z,84.90
2019-05-06T17:55:05.309Z,86.40
2019-05-06T17:57:34.818Z,86.40
2019-05-06T18:00:04.985Z,86.00
2019-05-06T18:02:34.372Z,86.10
2019-05-06T18:05:04.444Z,86.30
2019-05-06T18:07:33.976Z,87.50
2019-05-06T18:10:03.729Z,88.00
2019-05-06T18:12:33.295Z,89.60
2019-05-06T18:15:03.014Z,87.50
2019-05-06T18:17:33.125Z,86.50
2019-05-06T18:20:03.176Z,86.00
2019-05-06T18:22:32.851Z,88.30
2019-05-06T18:25:02.462Z,88.00
2019-05-06T18:27:32.702Z,88.80
2019-05-06T18:30:14.978Z,89.40
2019-05-06T18:32:33.457Z,89.30
2019-05-06T18:35:02.934Z,89.70
2019-05-06T18:37:33.285Z,90.10
2019-05-06T18:40:02.837Z,90.40
2019-05-06T18:42:32.974Z,90.40
2019-05-06T18:45:05.149Z,90.90
2019-05-06T18:47:34.525Z,91.30
2019-05-06T18:50:04.213Z,91.40
2019-05-06T18:52:33.550Z,94.30
2019-05-06T18:55:03.003Z,94.60
2019-05-06T18:57:33.092Z,93.20
2019-05-06T19:00:03.245Z,95.60
2019-05-06T19:02:32.819Z,94.80
2019-05-06T19:05:24.947Z,93.80
2019-05-06T19:07:52.763Z,93.90
2019-05-06T19:10:27.874Z,94.60
2019-05-06T19:12:57.203Z,96.20
2019-05-06T19:15:27.004Z,98.30
2019-05-06T19:17:56.465Z,97.70
2019-05-06T19:20:26.306Z,98.30
2019-05-06T19:22:55.795Z,99.90
2019-05-06T19:25:26.561Z,99.90
2019-05-06T19:27:56.248Z,99.90
2019-05-06T19:30:25.725Z,99.90
2019-05-06T19:32:55.167Z,99.90
2019-05-06T19:35:24.662Z,99.90
2019-05-06T19:37:54.075Z,99.90
2019-05-06T19:40:23.715Z,99.90
2019-05-06T19:42:54.573Z,99.90
2019-05-06T19:45:24.003Z,99.90
2019-05-06T19:47:53.399Z,99.90
2019-05-06T19:50:25.740Z,99.90
2019-05-06T19:52:53.937Z,99.90
2019-05-06T19:55:23.392Z,99.90
2019-05-06T19:57:52.798Z,99.90
2019-05-06T20:00:22.851Z,99.90
2019-05-06T20:02:52.373Z,99.90
2019-05-06T20:05:29.237Z,99.90
2019-05-06T20:08:14.467Z,99.90
2019-05-06T20:10:56.116Z,99.90
2019-05-06T20:13:24.661Z,99.90
2019-05-06T20:15:54.130Z,99.90
2019-05-06T20:18:23.520Z,99.90
2019-05-06T20:20:53.006Z,99.90
2019-05-06T20:23:23.234Z,99.90
2019-05-06T20:25:52.850Z,99.90
2019-05-06T20:28:22.839Z,99.90
2019-05-06T20:30:53.045Z,99.90
2019-05-06T20:33:22.517Z,99.90
2019-05-06T20:35:52.589Z,99.90
2019-05-06T20:38:24.589Z,99.90
2019-05-06T20:40:54.019Z,99.90
2019-05-06T20:43:24.091Z,99.90
2019-05-06T20:45:53.720Z,99.90
2019-05-06T20:48:23.640Z,99.90
2019-05-06T20:50:53.170Z,99.90
2019-05-06T20:53:23.256Z,99.90
2019-05-06T20:55:53.349Z,99.90
2019-05-06T20:58:23.152Z,99.90
2019-05-06T21:00:52.993Z,99.90
2019-05-06T21:03:22.426Z,99.90
2019-05-06T21:05:51.917Z,99.90
2019-05-06T21:08:22.070Z,99.90
2019-05-06T21:10:52.917Z,99.90
2019-05-06T21:13:31.939Z,99.90
2019-05-06T21:15:53.491Z,99.90
2019-05-06T21:18:23.032Z,99.90
2019-05-06T21:20:52.524Z,99.90
2019-05-06T21:23:22.659Z,99.90
2019-05-06T21:25:52.465Z,99.90
2019-05-06T21:28:23.824Z,99.90
2019-05-06T21:30:53.002Z,99.90
2019-05-06T21:33:22.433Z,99.90
2019-05-06T21:35:52.369Z,99.90
2019-05-06T21:38:22.678Z,99.90
2019-05-06T21:40:52.645Z,99.90
2019-05-06T21:43:22.762Z,99.90
2019-05-06T21:45:54.104Z,99.90
2019-05-06T21:48:23.422Z,99.90
2019-05-06T21:50:52.771Z,99.90
2019-05-06T21:53:23.625Z,99.90
2019-05-06T21:55:52.996Z,99.90
2019-05-06T21:58:23.127Z,99.90
2019-05-06T22:00:59.078Z,99.90
2019-05-06T22:03:28.437Z,99.90
2019-05-06T22:05:57.799Z,99.90
2019-05-06T22:08:27.224Z,99.90
2019-05-06T22:10:59.789Z,99.90
2019-05-06T22:13:27.668Z,99.90
2019-05-06T22:15:57.022Z,99.90
2019-05-06T22:18:26.482Z,99.90
2019-05-06T22:21:32.052Z,99.90
2019-05-06T22:24:05.623Z,99.90
2019-05-06T22:26:34.985Z,99.90
2019-05-06T22:29:04.404Z,99.90
2019-05-06T22:31:33.811Z,99.90
2019-05-06T22:34:03.250Z,99.90
2019-05-06T22:36:32.627Z,99.90
2019-05-06T22:39:02.632Z,99.90
2019-05-06T22:41:32.700Z,99.90
2019-05-06T22:44:13.303Z,99.90
2019-05-06T22:46:33.227Z,99.90
2019-05-06T22:49:02.720Z,99.90
2019-05-06T22:51:32.452Z,99.90
2019-05-06T22:54:02.759Z,99.90
2019-05-06T22:56:32.643Z,99.90
2019-05-06T22:59:03.311Z,99.90
2019-05-06T23:02:03.848Z,99.90
2019-05-06T23:04:34.166Z,99.90
2019-05-06T23:07:04.874Z,99.90
2019-05-06T23:09:34.392Z,99.90
2019-05-06T23:12:04.859Z,99.90
2019-05-06T23:14:37.140Z,99.90
2019-05-06T23:17:05.436Z,99.90
2019-05-06T23:19:34.833Z,99.90
2019-05-06T23:22:04.397Z,99.90
2019-05-06T23:24:33.752Z,99.90
2019-05-06T23:27:03.141Z,99.90
2019-05-06T23:29:32.533Z,99.90
2019-05-06T23:32:02.962Z,99.90
2019-05-06T23:34:32.557Z,99.90
2019-05-06T23:37:19.218Z,99.90
2019-05-06T23:40:25.660Z,99.90
2019-05-06T23:43:33.047Z,99.90
2019-05-06T23:46:38.451Z,99.90
2019-05-06T23:49:43.936Z,99.90
2019-05-06T23:52:49.170Z,99.90
2019-05-06T23:55:54.185Z,99.90
2019-05-06T23:58:22.477Z,99.90
